sensor_id;sensor_type;location;lat;lon;timestamp;temperature;humidity
65707;SHT31;52423;43.512;5.220;2023-12-20T00:01:40;6.28;74.26
65707;SHT31;52423;43.512;5.220;2023-12-20T00:04:06;6.22;73.53
65707;SHT31;52423;43.512;5.220;2023-12-20T00:06:31;6.20;72.84
65707;SHT31;52423;43.512;5.220;2023-12-20T00:08:57;6.19;73.99
65707;SHT31;52423;43.512;5.220;2023-12-20T00:11:23;6.18;72.67
65707;SHT31;52423;43.512;5.220;2023-12-20T00:13:49;6.26;73.83
65707;SHT31;52423;43.512;5.220;2023-12-20T00:16:14;6.15;74.10
65707;SHT31;52423;43.512;5.220;2023-12-20T00:18:39;6.02;73.94
65707;SHT31;52423;43.512;5.220;2023-12-20T00:21:05;5.94;74.01
65707;SHT31;52423;43.512;5.220;2023-12-20T00:23:30;5.88;74.15
65707;SHT31;52423;43.512;5.220;2023-12-20T00:25:56;5.88;75.10
65707;SHT31;52423;43.512;5.220;2023-12-20T00:28:21;5.88;74.79
65707;SHT31;52423;43.512;5.220;2023-12-20T00:30:47;5.95;74.45
65707;SHT31;52423;43.512;5.220;2023-12-20T00:33:12;5.89;74.99
65707;SHT31;52423;43.512;5.220;2023-12-20T00:35:37;5.85;74.77
65707;SHT31;52423;43.512;5.220;2023-12-20T00:38:03;5.89;74.54
65707;SHT31;52423;43.512;5.220;2023-12-20T00:40:30;5.89;74.37
65707;SHT31;52423;43.512;5.220;2023-12-20T00:42:55;5.84;74.09
65707;SHT31;52423;43.512;5.220;2023-12-20T00:45:21;5.85;75.41
65707;SHT31;52423;43.512;5.220;2023-12-20T00:47:46;5.84;75.13
65707;SHT31;52423;43.512;5.220;2023-12-20T00:50:11;5.87;75.20
65707;SHT31;52423;43.512;5.220;2023-12-20T00:52:37;5.82;75.81
65707;SHT31;52423;43.512;5.220;2023-12-20T00:55:03;5.77;75.36
65707;SHT31;52423;43.512;5.220;2023-12-20T00:57:29;5.81;75.15
65707;SHT31;52423;43.512;5.220;2023-12-20T00:59:54;5.81;75.14
65707;SHT31;52423;43.512;5.220;2023-12-20T01:02:19;5.85;74.70
65707;SHT31;52423;43.512;5.220;2023-12-20T01:04:45;5.89;73.85
65707;SHT31;52423;43.512;5.220;2023-12-20T01:07:10;6.03;74.00
65707;SHT31;52423;43.512;5.220;2023-12-20T01:09:36;6.09;73.68
65707;SHT31;52423;43.512;5.220;2023-12-20T01:12:01;6.16;73.37
65707;SHT31;52423;43.512;5.220;2023-12-20T01:14:26;6.23;73.41
65707;SHT31;52423;43.512;5.220;2023-12-20T01:16:52;6.23;73.14
65707;SHT31;52423;43.512;5.220;2023-12-20T01:19:17;6.32;72.81
65707;SHT31;52423;43.512;5.220;2023-12-20T01:21:43;6.41;72.23
65707;SHT31;52423;43.512;5.220;2023-12-20T01:24:08;6.58;72.34
65707;SHT31;52423;43.512;5.220;2023-12-20T01:26:34;6.60;72.39
65707;SHT31;52423;43.512;5.220;2023-12-20T01:28:59;6.60;72.52
65707;SHT31;52423;43.512;5.220;2023-12-20T01:31:25;6.60;72.56
65707;SHT31;52423;43.512;5.220;2023-12-20T01:33:52;6.54;72.97
65707;SHT31;52423;43.512;5.220;2023-12-20T01:36:18;6.57;72.97
65707;SHT31;52423;43.512;5.220;2023-12-20T01:38:43;6.56;73.06
65707;SHT31;52423;43.512;5.220;2023-12-20T01:41:08;6.58;73.47
65707;SHT31;52423;43.512;5.220;2023-12-20T01:43:34;6.63;73.13
65707;SHT31;52423;43.512;5.220;2023-12-20T01:46:00;6.64;73.39
65707;SHT31;52423;43.512;5.220;2023-12-20T01:48:26;6.73;73.20
65707;SHT31;52423;43.512;5.220;2023-12-20T01:50:53;6.66;73.58
65707;SHT31;52423;43.512;5.220;2023-12-20T01:53:21;6.63;74.05
65707;SHT31;52423;43.512;5.220;2023-12-20T01:55:50;6.64;73.90
65707;SHT31;52423;43.512;5.220;2023-12-20T01:58:16;6.73;73.70
65707;SHT31;52423;43.512;5.220;2023-12-20T02:00:42;6.87;73.60
65707;SHT31;52423;43.512;5.220;2023-12-20T02:03:07;6.85;73.92
65707;SHT31;52423;43.512;5.220;2023-12-20T02:05:35;6.81;74.20
65707;SHT31;52423;43.512;5.220;2023-12-20T02:08:00;6.90;74.21
65707;SHT31;52423;43.512;5.220;2023-12-20T02:10:26;6.88;74.26
65707;SHT31;52423;43.512;5.220;2023-12-20T02:12:52;6.98;73.30
65707;SHT31;52423;43.512;5.220;2023-12-20T02:15:18;7.09;73.36
65707;SHT31;52423;43.512;5.220;2023-12-20T02:17:43;7.26;72.24
65707;SHT31;52423;43.512;5.220;2023-12-20T02:20:09;7.35;71.97
65707;SHT31;52423;43.512;5.220;2023-12-20T02:22:34;7.40;71.92
65707;SHT31;52423;43.512;5.220;2023-12-20T02:25:00;7.49;71.75
65707;SHT31;52423;43.512;5.220;2023-12-20T02:27:26;7.58;71.46
65707;SHT31;52423;43.512;5.220;2023-12-20T02:29:52;7.67;71.03
65707;SHT31;52423;43.512;5.220;2023-12-20T02:32:18;7.73;71.52
65707;SHT31;52423;43.512;5.220;2023-12-20T02:34:44;7.76;70.75
65707;SHT31;52423;43.512;5.220;2023-12-20T02:37:09;7.74;70.48
65707;SHT31;52423;43.512;5.220;2023-12-20T02:39:34;7.79;70.65
65707;SHT31;52423;43.512;5.220;2023-12-20T02:42:00;7.84;70.43
65707;SHT31;52423;43.512;5.220;2023-12-20T02:44:25;7.89;69.95
65707;SHT31;52423;43.512;5.220;2023-12-20T02:46:51;7.95;69.84
65707;SHT31;52423;43.512;5.220;2023-12-20T02:49:16;8.05;69.57
65707;SHT31;52423;43.512;5.220;2023-12-20T02:51:41;8.01;69.88
65707;SHT31;52423;43.512;5.220;2023-12-20T02:54:07;7.98;70.06
65707;SHT31;52423;43.512;5.220;2023-12-20T02:56:33;7.93;70.00
65707;SHT31;52423;43.512;5.220;2023-12-20T02:58:58;7.94;70.75
65707;SHT31;52423;43.512;5.220;2023-12-20T03:01:24;7.90;70.35
65707;SHT31;52423;43.512;5.220;2023-12-20T03:03:49;7.86;70.91
65707;SHT31;52423;43.512;5.220;2023-12-20T03:06:18;7.83;71.08
65707;SHT31;52423;43.512;5.220;2023-12-20T03:08:44;7.84;70.99
65707;SHT31;52423;43.512;5.220;2023-12-20T03:11:09;7.76;71.70
65707;SHT31;52423;43.512;5.220;2023-12-20T03:13:35;7.70;71.68
65707;SHT31;52423;43.512;5.220;2023-12-20T03:16:00;7.71;71.30
65707;SHT31;52423;43.512;5.220;2023-12-20T03:18:26;7.73;71.29
65707;SHT31;52423;43.512;5.220;2023-12-20T03:20:53;7.66;72.09
65707;SHT31;52423;43.512;5.220;2023-12-20T03:23:18;7.65;72.71
65707;SHT31;52423;43.512;5.220;2023-12-20T03:25:44;7.63;72.43
65707;SHT31;52423;43.512;5.220;2023-12-20T03:28:09;7.52;72.76
65707;SHT31;52423;43.512;5.220;2023-12-20T03:30:34;7.60;71.98
65707;SHT31;52423;43.512;5.220;2023-12-20T03:33:00;7.58;72.89
65707;SHT31;52423;43.512;5.220;2023-12-20T03:35:25;7.53;72.73
65707;SHT31;52423;43.512;5.220;2023-12-20T03:37:51;7.52;73.14
65707;SHT31;52423;43.512;5.220;2023-12-20T03:40:16;7.45;73.30
65707;SHT31;52423;43.512;5.220;2023-12-20T03:42:41;7.39;73.62
65707;SHT31;52423;43.512;5.220;2023-12-20T03:45:07;7.35;74.05
65707;SHT31;52423;43.512;5.220;2023-12-20T03:47:33;7.39;73.40
65707;SHT31;52423;43.512;5.220;2023-12-20T03:49:58;7.40;73.73
65707;SHT31;52423;43.512;5.220;2023-12-20T03:52:23;7.38;73.95
65707;SHT31;52423;43.512;5.220;2023-12-20T03:54:49;7.42;73.60
65707;SHT31;52423;43.512;5.220;2023-12-20T03:57:14;7.49;73.41
65707;SHT31;52423;43.512;5.220;2023-12-20T03:59:39;7.52;73.32
65707;SHT31;52423;43.512;5.220;2023-12-20T04:02:05;7.53;74.00
65707;SHT31;52423;43.512;5.220;2023-12-20T04:04:31;7.56;73.84
65707;SHT31;52423;43.512;5.220;2023-12-20T04:06:56;7.59;74.08
65707;SHT31;52423;43.512;5.220;2023-12-20T04:09:22;7.52;74.30
65707;SHT31;52423;43.512;5.220;2023-12-20T04:11:47;7.50;74.73
65707;SHT31;52423;43.512;5.220;2023-12-20T04:14:12;7.48;74.81
65707;SHT31;52423;43.512;5.220;2023-12-20T04:16:38;7.52;74.69
65707;SHT31;52423;43.512;5.220;2023-12-20T04:19:04;7.59;74.60
65707;SHT31;52423;43.512;5.220;2023-12-20T04:21:30;7.58;74.78
65707;SHT31;52423;43.512;5.220;2023-12-20T04:23:55;7.62;75.15
65707;SHT31;52423;43.512;5.220;2023-12-20T04:26:21;7.71;75.21
65707;SHT31;52423;43.512;5.220;2023-12-20T04:28:46;7.74;75.20
65707;SHT31;52423;43.512;5.220;2023-12-20T04:31:11;7.81;75.22
65707;SHT31;52423;43.512;5.220;2023-12-20T04:33:37;7.93;75.00
65707;SHT31;52423;43.512;5.220;2023-12-20T04:36:02;8.01;74.88
65707;SHT31;52423;43.512;5.220;2023-12-20T04:38:29;7.93;75.00
65707;SHT31;52423;43.512;5.220;2023-12-20T04:40:55;7.91;75.63
65707;SHT31;52423;43.512;5.220;2023-12-20T04:43:20;7.91;75.57
65707;SHT31;52423;43.512;5.220;2023-12-20T04:45:45;7.84;75.87
65707;SHT31;52423;43.512;5.220;2023-12-20T04:48:11;7.83;76.05
65707;SHT31;52423;43.512;5.220;2023-12-20T04:50:37;7.90;76.36
65707;SHT31;52423;43.512;5.220;2023-12-20T04:53:02;7.97;76.21
65707;SHT31;52423;43.512;5.220;2023-12-20T04:55:28;8.00;76.30
65707;SHT31;52423;43.512;5.220;2023-12-20T04:57:53;8.14;76.20
65707;SHT31;52423;43.512;5.220;2023-12-20T05:00:19;8.22;75.75
65707;SHT31;52423;43.512;5.220;2023-12-20T05:02:45;8.28;75.66
65707;SHT31;52423;43.512;5.220;2023-12-20T05:05:10;8.25;76.30
65707;SHT31;52423;43.512;5.220;2023-12-20T05:07:36;8.28;76.24
65707;SHT31;52423;43.512;5.220;2023-12-20T05:10:02;8.37;76.24
65707;SHT31;52423;43.512;5.220;2023-12-20T05:12:29;8.42;76.29
65707;SHT31;52423;43.512;5.220;2023-12-20T05:14:55;8.59;75.94
65707;SHT31;52423;43.512;5.220;2023-12-20T05:17:20;8.65;76.07
65707;SHT31;52423;43.512;5.220;2023-12-20T05:19:45;8.65;76.29
65707;SHT31;52423;43.512;5.220;2023-12-20T05:22:11;8.77;75.90
65707;SHT31;52423;43.512;5.220;2023-12-20T05:24:36;8.84;76.00
65707;SHT31;52423;43.512;5.220;2023-12-20T05:27:02;8.89;76.05
65707;SHT31;52423;43.512;5.220;2023-12-20T05:29:27;8.84;76.68
65707;SHT31;52423;43.512;5.220;2023-12-20T05:31:52;8.92;76.60
65707;SHT31;52423;43.512;5.220;2023-12-20T05:34:18;8.90;76.75
65707;SHT31;52423;43.512;5.220;2023-12-20T05:36:44;8.94;76.68
65707;SHT31;52423;43.512;5.220;2023-12-20T05:39:09;8.92;76.87
65707;SHT31;52423;43.512;5.220;2023-12-20T05:41:35;9.00;76.78
65707;SHT31;52423;43.512;5.220;2023-12-20T05:44:00;9.19;76.44
65707;SHT31;52423;43.512;5.220;2023-12-20T05:46:25;9.28;76.43
65707;SHT31;52423;43.512;5.220;2023-12-20T05:48:51;9.45;76.25
65707;SHT31;52423;43.512;5.220;2023-12-20T05:51:17;9.51;76.24
65707;SHT31;52423;43.512;5.220;2023-12-20T05:53:43;9.51;76.39
65707;SHT31;52423;43.512;5.220;2023-12-20T05:56:09;9.52;76.43
65707;SHT31;52423;43.512;5.220;2023-12-20T05:58:34;9.65;76.15
65707;SHT31;52423;43.512;5.220;2023-12-20T06:01:00;9.95;75.31
65707;SHT31;52423;43.512;5.220;2023-12-20T06:03:25;10.08;74.95
65707;SHT31;52423;43.512;5.220;2023-12-20T06:05:50;10.13;74.38
65707;SHT31;52423;43.512;5.220;2023-12-20T06:08:16;10.12;74.81
65707;SHT31;52423;43.512;5.220;2023-12-20T06:10:41;10.23;74.08
65707;SHT31;52423;43.512;5.220;2023-12-20T06:13:07;10.42;73.44
65707;SHT31;52423;43.512;5.220;2023-12-20T06:15:33;10.50;73.01
65707;SHT31;52423;43.512;5.220;2023-12-20T06:17:58;10.49;73.34
65707;SHT31;52423;43.512;5.220;2023-12-20T06:20:23;10.26;74.09
65707;SHT31;52423;43.512;5.220;2023-12-20T06:22:50;10.03;74.92
65707;SHT31;52423;43.512;5.220;2023-12-20T06:25:16;10.20;74.34
65707;SHT31;52423;43.512;5.220;2023-12-20T06:27:41;10.22;74.57
65707;SHT31;52423;43.512;5.220;2023-12-20T06:30:07;10.26;74.35
65707;SHT31;52423;43.512;5.220;2023-12-20T06:32:35;10.47;73.81
65707;SHT31;52423;43.512;5.220;2023-12-20T06:35:00;10.51;73.79
65707;SHT31;52423;43.512;5.220;2023-12-20T06:37:26;10.60;73.48
65707;SHT31;52423;43.512;5.220;2023-12-20T06:39:51;10.60;73.50
65707;SHT31;52423;43.512;5.220;2023-12-20T06:42:17;10.70;73.47
65707;SHT31;52423;43.512;5.220;2023-12-20T06:44:42;10.71;73.15
65707;SHT31;52423;43.512;5.220;2023-12-20T06:47:07;10.80;72.94
65707;SHT31;52423;43.512;5.220;2023-12-20T06:49:33;10.84;72.54
65707;SHT31;52423;43.512;5.220;2023-12-20T06:51:58;10.92;72.18
65707;SHT31;52423;43.512;5.220;2023-12-20T06:54:24;10.95;72.14
65707;SHT31;52423;43.512;5.220;2023-12-20T06:56:49;10.91;72.25
65707;SHT31;52423;43.512;5.220;2023-12-20T06:59:14;10.82;72.45
65707;SHT31;52423;43.512;5.220;2023-12-20T07:01:41;10.77;72.96
65707;SHT31;52423;43.512;5.220;2023-12-20T07:04:06;10.78;72.78
65707;SHT31;52423;43.512;5.220;2023-12-20T07:06:32;10.80;72.60
65707;SHT31;52423;43.512;5.220;2023-12-20T07:08:57;10.77;72.84
65707;SHT31;52423;43.512;5.220;2023-12-20T07:11:22;10.68;73.08
65707;SHT31;52423;43.512;5.220;2023-12-20T07:13:48;10.65;73.04
65707;SHT31;52423;43.512;5.220;2023-12-20T07:16:14;10.56;73.33
65707;SHT31;52423;43.512;5.220;2023-12-20T07:18:40;10.49;73.68
65707;SHT31;52423;43.512;5.220;2023-12-20T07:21:05;10.47;73.65
65707;SHT31;52423;43.512;5.220;2023-12-20T07:23:33;10.49;73.71
65707;SHT31;52423;43.512;5.220;2023-12-20T07:25:58;10.50;73.26
65707;SHT31;52423;43.512;5.220;2023-12-20T07:28:23;10.50;73.46
65707;SHT31;52423;43.512;5.220;2023-12-20T07:30:50;10.47;73.68
65707;SHT31;52423;43.512;5.220;2023-12-20T07:33:15;10.47;73.32
65707;SHT31;52423;43.512;5.220;2023-12-20T07:35:41;10.44;73.51
65707;SHT31;52423;43.512;5.220;2023-12-20T07:38:06;10.46;73.21
65707;SHT31;52423;43.512;5.220;2023-12-20T07:40:31;10.40;73.38
65707;SHT31;52423;43.512;5.220;2023-12-20T07:42:57;10.50;72.98
65707;SHT31;52423;43.512;5.220;2023-12-20T07:45:23;10.50;72.99
65707;SHT31;52423;43.512;5.220;2023-12-20T07:47:48;10.59;72.67
65707;SHT31;52423;43.512;5.220;2023-12-20T07:50:15;10.68;72.08
65707;SHT31;52423;43.512;5.220;2023-12-20T07:52:40;10.71;71.94
65707;SHT31;52423;43.512;5.220;2023-12-20T07:55:06;10.74;71.88
65707;SHT31;52423;43.512;5.220;2023-12-20T07:57:32;10.74;71.75
65707;SHT31;52423;43.512;5.220;2023-12-20T07:59:57;10.71;71.92
65707;SHT31;52423;43.512;5.220;2023-12-20T08:02:23;10.74;71.67
65707;SHT31;52423;43.512;5.220;2023-12-20T08:04:48;10.81;71.55
65707;SHT31;52423;43.512;5.220;2023-12-20T08:07:13;10.77;71.69
65707;SHT31;52423;43.512;5.220;2023-12-20T08:09:39;10.78;71.56
65707;SHT31;52423;43.512;5.220;2023-12-20T08:12:05;10.81;71.56
65707;SHT31;52423;43.512;5.220;2023-12-20T08:14:30;10.78;71.56
65707;SHT31;52423;43.512;5.220;2023-12-20T08:16:56;10.84;71.46
65707;SHT31;52423;43.512;5.220;2023-12-20T08:19:22;10.78;71.70
65707;SHT31;52423;43.512;5.220;2023-12-20T08:21:47;10.71;72.54
65707;SHT31;52423;43.512;5.220;2023-12-20T08:24:13;10.75;71.84
65707;SHT31;52423;43.512;5.220;2023-12-20T08:26:38;10.84;71.63
65707;SHT31;52423;43.512;5.220;2023-12-20T08:29:03;10.82;71.91
65707;SHT31;52423;43.512;5.220;2023-12-20T08:31:29;10.78;71.72
65707;SHT31;52423;43.512;5.220;2023-12-20T08:33:54;10.84;71.55
65707;SHT31;52423;43.512;5.220;2023-12-20T08:36:21;10.97;70.72
65707;SHT31;52423;43.512;5.220;2023-12-20T08:38:48;10.95;70.96
65707;SHT31;52423;43.512;5.220;2023-12-20T08:41:14;10.91;71.04
65707;SHT31;52423;43.512;5.220;2023-12-20T08:43:39;10.95;70.81
65707;SHT31;52423;43.512;5.220;2023-12-20T08:46:08;10.97;70.68
65707;SHT31;52423;43.512;5.220;2023-12-20T08:48:35;10.85;71.99
65707;SHT31;52423;43.512;5.220;2023-12-20T08:51:00;10.88;71.21
65707;SHT31;52423;43.512;5.220;2023-12-20T08:53:25;10.85;71.36
65707;SHT31;52423;43.512;5.220;2023-12-20T08:55:53;10.77;72.11
65707;SHT31;52423;43.512;5.220;2023-12-20T08:58:18;10.73;71.94
65707;SHT31;52423;43.512;5.220;2023-12-20T09:00:45;10.74;71.91
65707;SHT31;52423;43.512;5.220;2023-12-20T09:03:10;10.67;72.20
65707;SHT31;52423;43.512;5.220;2023-12-20T09:05:35;10.65;72.40
65707;SHT31;52423;43.512;5.220;2023-12-20T09:08:01;10.64;72.91
65707;SHT31;52423;43.512;5.220;2023-12-20T09:10:27;10.61;72.61
65707;SHT31;52423;43.512;5.220;2023-12-20T09:12:53;10.57;72.96
65707;SHT31;52423;43.512;5.220;2023-12-20T09:15:26;10.51;73.31
65707;SHT31;52423;43.512;5.220;2023-12-20T09:17:52;10.42;73.62
65707;SHT31;52423;43.512;5.220;2023-12-20T09:20:17;10.46;73.51
65707;SHT31;52423;43.512;5.220;2023-12-20T09:22:43;10.43;73.45
65707;SHT31;52423;43.512;5.220;2023-12-20T09:25:10;10.43;73.65
65707;SHT31;52423;43.512;5.220;2023-12-20T09:27:36;10.46;72.90
65707;SHT31;52423;43.512;5.220;2023-12-20T09:30:02;10.44;73.16
65707;SHT31;52423;43.512;5.220;2023-12-20T09:32:28;10.44;72.97
65707;SHT31;52423;43.512;5.220;2023-12-20T09:34:54;10.44;73.22
65707;SHT31;52423;43.512;5.220;2023-12-20T09:37:20;10.43;73.28
65707;SHT31;52423;43.512;5.220;2023-12-20T09:39:45;10.37;73.54
65707;SHT31;52423;43.512;5.220;2023-12-20T09:42:12;10.34;73.71
65707;SHT31;52423;43.512;5.220;2023-12-20T09:44:41;10.34;73.62
65707;SHT31;52423;43.512;5.220;2023-12-20T09:47:08;10.33;73.89
65707;SHT31;52423;43.512;5.220;2023-12-20T09:49:34;10.32;73.90
65707;SHT31;52423;43.512;5.220;2023-12-20T09:52:00;10.29;73.94
65707;SHT31;52423;43.512;5.220;2023-12-20T09:54:27;10.29;74.09
65707;SHT31;52423;43.512;5.220;2023-12-20T09:56:53;10.28;73.95
65707;SHT31;52423;43.512;5.220;2023-12-20T09:59:19;10.26;73.74
65707;SHT31;52423;43.512;5.220;2023-12-20T10:01:44;10.28;73.62
65707;SHT31;52423;43.512;5.220;2023-12-20T10:04:12;10.22;73.91
65707;SHT31;52423;43.512;5.220;2023-12-20T10:06:39;10.20;73.90
65707;SHT31;52423;43.512;5.220;2023-12-20T10:09:05;10.22;73.74
65707;SHT31;52423;43.512;5.220;2023-12-20T10:11:31;10.19;73.99
65707;SHT31;52423;43.512;5.220;2023-12-20T10:14:00;10.14;74.01
65707;SHT31;52423;43.512;5.220;2023-12-20T10:16:28;10.14;73.88
65707;SHT31;52423;43.512;5.220;2023-12-20T10:18:54;10.19;73.57
65707;SHT31;52423;43.512;5.220;2023-12-20T10:21:20;10.14;73.57
65707;SHT31;52423;43.512;5.220;2023-12-20T10:23:46;10.20;73.49
65707;SHT31;52423;43.512;5.220;2023-12-20T10:26:22;10.16;73.19
65707;SHT31;52423;43.512;5.220;2023-12-20T10:28:54;10.23;72.79
65707;SHT31;52423;43.512;5.220;2023-12-20T10:31:28;10.22;73.35
65707;SHT31;52423;43.512;5.220;2023-12-20T10:33:59;10.26;72.66
65707;SHT31;52423;43.512;5.220;2023-12-20T10:36:33;10.32;72.10
65707;SHT31;52423;43.512;5.220;2023-12-20T10:38:59;10.40;71.55
65707;SHT31;52423;43.512;5.220;2023-12-20T10:41:27;10.46;71.45
65707;SHT31;52423;43.512;5.220;2023-12-20T10:44:00;10.44;71.28
65707;SHT31;52423;43.512;5.220;2023-12-20T10:46:27;10.47;71.16
65707;SHT31;52423;43.512;5.220;2023-12-20T10:48:54;10.51;70.77
65707;SHT31;52423;43.512;5.220;2023-12-20T10:51:20;10.50;71.12
65707;SHT31;52423;43.512;5.220;2023-12-20T10:53:47;10.50;71.82
65707;SHT31;52423;43.512;5.220;2023-12-20T10:56:16;10.51;70.91
65707;SHT31;52423;43.512;5.220;2023-12-20T10:58:43;10.53;70.98
65707;SHT31;52423;43.512;5.220;2023-12-20T11:01:09;10.61;70.31
65707;SHT31;52423;43.512;5.220;2023-12-20T11:03:36;10.68;69.88
65707;SHT31;52423;43.512;5.220;2023-12-20T11:14:08;10.87;69.04
65707;SHT31;52423;43.512;5.220;2023-12-20T11:16:37;10.90;68.34
65707;SHT31;52423;43.512;5.220;2023-12-20T11:19:06;10.88;68.92
65707;SHT31;52423;43.512;5.220;2023-12-20T11:21:32;10.95;67.39
65707;SHT31;52423;43.512;5.220;2023-12-20T11:23:57;10.98;67.46
65707;SHT31;52423;43.512;5.220;2023-12-20T11:26:27;10.95;67.82
65707;SHT31;52423;43.512;5.220;2023-12-20T11:31:56;10.97;67.04
65707;SHT31;52423;43.512;5.220;2023-12-20T11:34:21;10.94;67.42
65707;SHT31;52423;43.512;5.220;2023-12-20T11:36:47;10.91;67.47
65707;SHT31;52423;43.512;5.220;2023-12-20T11:39:20;10.90;66.88
65707;SHT31;52423;43.512;5.220;2023-12-20T11:41:46;10.90;67.34
65707;SHT31;52423;43.512;5.220;2023-12-20T11:44:11;10.91;66.61
65707;SHT31;52423;43.512;5.220;2023-12-20T11:46:37;10.91;66.42
65707;SHT31;52423;43.512;5.220;2023-12-20T11:49:02;10.91;66.24
65707;SHT31;52423;43.512;5.220;2023-12-20T11:51:28;10.81;66.45
65707;SHT31;52423;43.512;5.220;2023-12-20T11:53:53;10.84;66.10
65707;SHT31;52423;43.512;5.220;2023-12-20T11:56:19;10.87;65.98
65707;SHT31;52423;43.512;5.220;2023-12-20T11:58:44;10.90;65.71
65707;SHT31;52423;43.512;5.220;2023-12-20T12:01:10;10.88;66.24
65707;SHT31;52423;43.512;5.220;2023-12-20T12:03:35;10.91;65.74
65707;SHT31;52423;43.512;5.220;2023-12-20T12:06:02;10.98;65.67
65707;SHT31;52423;43.512;5.220;2023-12-20T12:08:29;11.04;65.61
65707;SHT31;52423;43.512;5.220;2023-12-20T12:10:55;11.11;65.74
65707;SHT31;52423;43.512;5.220;2023-12-20T12:13:20;11.29;64.35
65707;SHT31;52423;43.512;5.220;2023-12-20T12:15:46;11.62;63.19
65707;SHT31;52423;43.512;5.220;2023-12-20T12:18:15;11.82;61.82
65707;SHT31;52423;43.512;5.220;2023-12-20T12:20:41;12.00;62.38
65707;SHT31;52423;43.512;5.220;2023-12-20T12:23:06;12.14;60.84
65707;SHT31;52423;43.512;5.220;2023-12-20T12:25:35;12.27;61.42
65707;SHT31;52423;43.512;5.220;2023-12-20T12:28:00;12.41;60.37
65707;SHT31;52423;43.512;5.220;2023-12-20T12:30:26;12.42;61.11
65707;SHT31;52423;43.512;5.220;2023-12-20T12:32:52;12.45;60.27
65707;SHT31;52423;43.512;5.220;2023-12-20T12:35:19;12.48;60.36
65707;SHT31;52423;43.512;5.220;2023-12-20T12:37:44;12.45;60.49
65707;SHT31;52423;43.512;5.220;2023-12-20T12:40:11;12.51;59.59
65707;SHT31;52423;43.512;5.220;2023-12-20T12:42:38;12.54;59.16
65707;SHT31;52423;43.512;5.220;2023-12-20T12:45:04;12.55;58.78
65707;SHT31;52423;43.512;5.220;2023-12-20T12:47:30;12.49;59.20
65707;SHT31;52423;43.512;5.220;2023-12-20T12:49:56;12.46;58.96
65707;SHT31;52423;43.512;5.220;2023-12-20T12:52:21;12.45;60.29
65707;SHT31;52423;43.512;5.220;2023-12-20T12:54:46;12.45;59.18
65707;SHT31;52423;43.512;5.220;2023-12-20T12:57:14;12.42;60.18
65707;SHT31;52423;43.512;5.220;2023-12-20T12:59:40;12.40;60.57
65707;SHT31;52423;43.512;5.220;2023-12-20T13:02:05;12.48;59.26
65707;SHT31;52423;43.512;5.220;2023-12-20T13:04:31;12.46;59.92
65707;SHT31;52423;43.512;5.220;2023-12-20T13:06:56;12.44;59.81
65707;SHT31;52423;43.512;5.220;2023-12-20T13:09:22;12.42;60.44
65707;SHT31;52423;43.512;5.220;2023-12-20T13:11:48;12.44;60.92
65707;SHT31;52423;43.512;5.220;2023-12-20T13:14:13;12.46;58.47
65707;SHT31;52423;43.512;5.220;2023-12-20T13:16:41;12.41;60.33
65707;SHT31;52423;43.512;5.220;2023-12-20T13:19:07;12.40;59.65
65707;SHT31;52423;43.512;5.220;2023-12-20T13:21:32;12.42;59.29
65707;SHT31;52423;43.512;5.220;2023-12-20T13:23:58;12.44;58.77
65707;SHT31;52423;43.512;5.220;2023-12-20T13:26:23;12.40;59.13
65707;SHT31;52423;43.512;5.220;2023-12-20T13:28:48;12.45;59.64
65707;SHT31;52423;43.512;5.220;2023-12-20T13:31:14;12.42;59.24
65707;SHT31;52423;43.512;5.220;2023-12-20T13:33:39;12.42;58.16
65707;SHT31;52423;43.512;5.220;2023-12-20T13:36:05;12.44;59.26
65707;SHT31;52423;43.512;5.220;2023-12-20T13:38:31;12.42;58.51
65707;SHT31;52423;43.512;5.220;2023-12-20T13:40:57;12.42;58.87
65707;SHT31;52423;43.512;5.220;2023-12-20T13:43:23;12.37;58.28
65707;SHT31;52423;43.512;5.220;2023-12-20T13:45:50;12.28;59.08
65707;SHT31;52423;43.512;5.220;2023-12-20T13:48:15;12.28;58.71
65707;SHT31;52423;43.512;5.220;2023-12-20T13:50:41;12.28;57.87
65707;SHT31;52423;43.512;5.220;2023-12-20T13:53:06;12.27;57.90
65707;SHT31;52423;43.512;5.220;2023-12-20T13:55:32;12.21;59.83
65707;SHT31;52423;43.512;5.220;2023-12-20T13:57:57;12.27;59.53
65707;SHT31;52423;43.512;5.220;2023-12-20T14:00:23;12.30;57.96
65707;SHT31;52423;43.512;5.220;2023-12-20T14:02:49;12.24;58.70
65707;SHT31;52423;43.512;5.220;2023-12-20T14:05:15;12.21;58.95
65707;SHT31;52423;43.512;5.220;2023-12-20T14:07:43;12.11;59.46
65707;SHT31;52423;43.512;5.220;2023-12-20T14:10:13;12.10;59.23
65707;SHT31;52423;43.512;5.220;2023-12-20T14:12:39;12.05;59.46
65707;SHT31;52423;43.512;5.220;2023-12-20T14:15:04;12.01;58.28
65707;SHT31;52423;43.512;5.220;2023-12-20T14:17:34;11.94;58.60
65707;SHT31;52423;43.512;5.220;2023-12-20T14:20:00;11.87;59.81
65707;SHT31;52423;43.512;5.220;2023-12-20T14:22:25;11.84;59.08
65707;SHT31;52423;43.512;5.220;2023-12-20T14:24:51;11.82;58.45
65707;SHT31;52423;43.512;5.220;2023-12-20T14:27:16;11.76;59.29
65707;SHT31;52423;43.512;5.220;2023-12-20T14:29:41;11.74;60.16
65707;SHT31;52423;43.512;5.220;2023-12-20T14:32:07;11.76;58.10
65707;SHT31;52423;43.512;5.220;2023-12-20T14:34:32;11.72;58.83
65707;SHT31;52423;43.512;5.220;2023-12-20T14:36:58;11.66;59.79
65707;SHT31;52423;43.512;5.220;2023-12-20T14:39:23;11.66;58.29
65707;SHT31;52423;43.512;5.220;2023-12-20T14:41:48;11.62;58.27
65707;SHT31;52423;43.512;5.220;2023-12-20T14:44:14;11.59;59.01
65707;SHT31;52423;43.512;5.220;2023-12-20T14:46:39;11.53;57.95
65707;SHT31;52423;43.512;5.220;2023-12-20T14:49:05;11.49;59.39
65707;SHT31;52423;43.512;5.220;2023-12-20T14:51:30;11.44;58.27
65707;SHT31;52423;43.512;5.220;2023-12-20T14:53:56;11.36;59.90
65707;SHT31;52423;43.512;5.220;2023-12-20T14:56:23;11.36;58.54
65707;SHT31;52423;43.512;5.220;2023-12-20T14:58:51;11.31;59.40
65707;SHT31;52423;43.512;5.220;2023-12-20T15:01:16;11.29;58.66
65707;SHT31;52423;43.512;5.220;2023-12-20T15:03:45;11.23;59.30
65707;SHT31;52423;43.512;5.220;2023-12-20T15:06:11;11.11;58.92
65707;SHT31;52423;43.512;5.220;2023-12-20T15:08:36;11.07;59.18
65707;SHT31;52423;43.512;5.220;2023-12-20T15:11:02;11.05;59.36
65707;SHT31;52423;43.512;5.220;2023-12-20T15:13:29;11.00;59.77
65707;SHT31;52423;43.512;5.220;2023-12-20T15:15:54;10.94;59.48
65707;SHT31;52423;43.512;5.220;2023-12-20T15:18:20;10.90;59.61
65707;SHT31;52423;43.512;5.220;2023-12-20T15:20:45;10.81;59.65
65707;SHT31;52423;43.512;5.220;2023-12-20T15:23:12;10.80;60.36
65707;SHT31;52423;43.512;5.220;2023-12-20T15:25:38;10.75;59.33
65707;SHT31;52423;43.512;5.220;2023-12-20T15:28:03;10.71;59.90
65707;SHT31;52423;43.512;5.220;2023-12-20T15:30:29;10.64;59.73
65707;SHT31;52423;43.512;5.220;2023-12-20T15:32:55;10.56;59.43
65707;SHT31;52423;43.512;5.220;2023-12-20T15:35:21;10.54;60.38
65707;SHT31;52423;43.512;5.220;2023-12-20T15:37:47;10.46;60.35
65707;SHT31;52423;43.512;5.220;2023-12-20T15:40:12;10.36;60.06